Time;durP1;ratioP1;P1;durP2;ratioP2;P2;SDS_P1;SDS_P2;PMS_P1;PMS_P2;Temp;Humidity;BMP_temperature;BMP_pressure;BME280_temperature;BME280_humidity;BME280_pressure;Samples;Min_cycle;Max_cycle;Signal;HPM_P1;HPM_P2
2023/09/28 00:03:00;;;;;;;17.88;11.70;;;19.70;56.30;;;;;;5017127;27;114405;-82
2023/09/28 00:05:28;;;;;;;13.52;10.80;;;19.70;56.10;;;;;;5014248;27;115228;-81
2023/09/28 00:07:55;;;;;;;15.70;11.23;;;19.70;56.40;;;;;;5048426;27;114766;-82
2023/09/28 00:10:23;;;;;;;13.50;11.90;;;19.70;56.30;;;;;;5049171;27;114211;-81
2023/09/28 00:12:52;;;;;;;13.82;11.70;;;19.70;56.30;;;;;;5014689;27;114063;-83
2023/09/28 00:15:19;;;;;;;14.00;11.25;;;19.60;55.80;;;;;;5030666;27;115037;-82
2023/09/28 00:17:51;;;;;;;13.18;10.48;;;19.60;56.10;;;;;;5048024;27;114607;-82
2023/09/28 00:20:20;;;;;;;13.13;10.40;;;19.50;55.90;;;;;;5015885;27;114426;-81
2023/09/28 00:22:52;;;;;;;17.42;10.02;;;19.50;56.40;;;;;;5049058;27;114360;-81
2023/09/28 00:25:21;;;;;;;13.77;9.52;;;19.50;55.40;;;;;;5046500;27;115759;-81
2023/09/28 00:27:52;;;;;;;14.68;10.30;;;19.30;55.50;;;;;;5030077;27;116626;-82
2023/09/28 00:30:22;;;;;;;11.50;10.13;;;19.20;56.50;;;;;;5014008;27;114300;-81
2023/09/28 00:32:50;;;;;;;13.55;10.13;;;19.10;56.20;;;;;;5014430;27;114247;-82
2023/09/28 00:35:17;;;;;;;14.00;10.45;;;19.10;56.40;;;;;;5029105;27;115382;-82
2023/09/28 00:37:45;;;;;;;13.43;10.32;;;19.00;56.90;;;;;;5012990;27;116716;-81
2023/09/28 00:40:19;;;;;;;13.68;9.85;;;19.10;57.30;;;;;;5048881;27;114321;-82
2023/09/28 00:42:48;;;;;;;11.15;9.68;;;19.10;57.10;;;;;;5015267;27;114343;-82
2023/09/28 00:45:15;;;;;;;11.18;9.90;;;19.20;56.10;;;;;;5029888;27;115055;-81
2023/09/28 00:47:45;;;;;;;12.10;10.32;;;19.20;56.70;;;;;;5047810;27;114453;-82
2023/09/28 00:50:14;;;;;;;13.60;10.13;;;19.10;55.90;;;;;;5014252;27;114363;-82
2023/09/28 00:52:43;;;;;;;12.48;10.25;;;19.10;56.70;;;;;;5031064;27;114172;-82
2023/09/28 00:55:10;;;;;;;11.68;9.30;;;19.10;56.70;;;;;;5029528;27;115032;-82
2023/09/28 00:57:38;;;;;;;10.43;9.05;;;19.20;57.00;;;;;;5047477;27;114602;-82
2023/09/28 01:02:51;;;;;;;14.20;9.43;;;19.20;56.60;;;;;;5035471;27;114320;-81
2023/09/28 01:05:22;;;;;;;11.93;9.52;;;19.20;55.70;;;;;;5042856;27;114859;-81
2023/09/28 01:07:49;;;;;;;14.45;9.38;;;18.90;55.60;;;;;;5026497;27;114934;-81
2023/09/28 01:10:23;;;;;;;11.13;9.35;;;18.70;56.30;;;;;;4998951;27;114231;-82
2023/09/28 01:12:51;;;;;;;11.13;8.88;;;18.60;56.50;;;;;;4998342;27;114448;-81
2023/09/28 01:15:17;;;;;;;12.82;9.10;;;18.50;57.00;;;;;;5016913;27;114860;-81
2023/09/28 01:17:45;;;;;;;12.85;8.57;;;18.40;57.10;;;;;;5047526;27;114143;-83
2023/09/28 01:20:18;;;;;;;13.88;9.48;;;18.40;56.70;;;;;;5042340;27;114094;-81
2023/09/28 01:22:48;;;;;;;13.27;8.98;;;18.30;57.40;;;;;;5048750;27;114017;-82
2023/09/28 01:25:18;;;;;;;11.98;9.45;;;18.30;57.20;;;;;;5046118;27;115176;-82
2023/09/28 01:27:46;;;;;;;11.77;10.45;;;18.30;58.20;;;;;;5012556;27;116897;-82
2023/09/28 01:30:16;;;;;;;11.52;8.70;;;18.30;57.60;;;;;;5030684;27;114303;-82
2023/09/28 01:32:43;;;;;;;12.23;8.98;;;18.30;58.00;;;;;;5049035;27;114225;-81
2023/09/28 01:35:13;;;;;;;10.93;9.35;;;18.30;58.70;;;;;;5029325;27;115185;-82
2023/09/28 01:38:06;;;;;;;11.02;9.82;;;18.40;57.60;;;;;;5011290;27;114779;-82
2023/09/28 01:40:33;;;;;;;14.70;9.57;;;18.50;57.80;;;;;;5047896;27;114301;-82
2023/09/28 01:43:00;;;;;;;14.55;9.48;;;18.50;57.60;;;;;;5047825;27;114385;-82
2023/09/28 01:45:27;;;;;;;11.55;8.75;;;18.60;57.40;;;;;;5020468;28;115465;-82
2023/09/28 01:47:55;;;;;;;16.27;9.43;;;18.70;58.00;;;;;;4992315;28;114620;-82
2023/09/28 01:50:22;;;;;;;12.73;8.43;;;18.80;58.00;;;;;;5026828;28;114293;-82
2023/09/28 01:52:49;;;;;;;12.20;9.40;;;18.80;57.40;;;;;;5027793;28;114271;-82
2023/09/28 01:55:16;;;;;;;12.68;9.60;;;18.90;57.20;;;;;;4991885;28;116270;-82
2023/09/28 01:57:43;;;;;;;10.75;9.13;;;18.90;56.20;;;;;;5009024;28;114652;-81
2023/09/28 02:00:14;;;;;;;10.90;9.15;;;18.80;56.80;;;;;;4977185;28;114388;-81
2023/09/28 02:02:45;;;;;;;9.43;8.40;;;18.70;57.00;;;;;;5009545;28;114279;-81
2023/09/28 02:05:24;;;;;;;10.20;8.75;;;18.70;57.60;;;;;;4974958;28;115104;-81
2023/09/28 02:07:56;;;;;;;11.90;8.50;;;18.70;57.10;;;;;;5008808;28;115188;-80
2023/09/28 02:10:28;;;;;;;11.68;9.05;;;18.60;57.30;;;;;;5010217;28;114125;-80
2023/09/28 02:12:55;;;;;;;12.02;8.98;;;18.60;57.10;;;;;;5009709;28;114199;-81
2023/09/28 02:15:23;;;;;;;10.30;8.90;;;18.60;56.60;;;;;;4974534;28;117842;-82
2023/09/28 02:17:50;;;;;;;11.02;8.38;;;18.60;57.70;;;;;;5007760;28;115240;-82
2023/09/28 02:20:22;;;;;;;9.98;8.50;;;18.70;56.90;;;;;;5008849;28;114335;-82
2023/09/28 02:22:52;;;;;;;9.98;8.73;;;18.70;57.70;;;;;;5009195;28;114809;-82
2023/09/28 02:25:22;;;;;;;11.88;9.07;;;18.80;57.10;;;;;;5007937;28;115546;-82
2023/09/28 02:27:50;;;;;;;10.07;8.10;;;18.80;56.60;;;;;;5007600;28;117199;-81
2023/09/28 02:30:20;;;;;;;12.38;8.60;;;18.90;57.30;;;;;;5009052;28;114258;-83
2023/09/28 02:32:47;;;;;;;11.15;8.68;;;19.00;57.00;;;;;;5009602;28;114192;-82
2023/09/28 02:35:16;;;;;;;11.52;8.73;;;18.90;57.00;;;;;;5024771;28;115668;-81
2023/09/28 02:37:45;;;;;;;12.93;8.73;;;19.00;56.80;;;;;;5008501;28;115682;-81
2023/09/28 02:40:12;;;;;;;10.88;7.93;;;19.00;56.40;;;;;;5026379;28;114248;-81
2023/09/28 02:42:43;;;;;;;11.07;8.43;;;18.90;56.50;;;;;;5008566;28;114152;-82
2023/09/28 02:45:13;;;;;;;13.63;8.38;;;18.80;56.80;;;;;;5007539;28;114913;-82
2023/09/28 02:47:45;;;;;;;11.10;8.55;;;18.80;55.80;;;;;;4974180;28;115161;-82
2023/09/28 02:50:13;;;;;;;8.93;7.88;;;18.60;57.10;;;;;;4975020;28;114330;-82
2023/09/28 02:52:42;;;;;;;12.50;8.60;;;18.40;56.80;;;;;;5026414;28;114187;-82
2023/09/28 02:55:12;;;;;;;11.57;8.98;;;18.40;56.90;;;;;;5006909;28;118644;-82
2023/09/28 02:57:41;;;;;;;13.77;9.25;;;18.30;57.00;;;;;;4975276;28;117735;-82
2023/09/28 03:00:24;;;;;;;10.00;8.20;;;18.20;57.30;;;;;;4991533;28;114281;-82
2023/09/28 03:02:56;;;;;;;10.50;8.32;;;18.20;57.60;;;;;;5025899;28;114447;-82
2023/09/28 03:05:23;;;;;;;11.32;8.65;;;18.30;57.30;;;;;;5024824;28;115010;-81
2023/09/28 03:07:50;;;;;;;10.18;8.45;;;18.30;56.80;;;;;;4990722;28;114870;-82
2023/09/28 03:10:19;;;;;;;12.27;8.25;;;18.30;57.40;;;;;;5026077;28;114175;-81
2023/09/28 03:12:47;;;;;;;11.98;8.48;;;18.40;57.30;;;;;;5008490;28;114040;-82
2023/09/28 03:15:16;;;;;;;12.25;8.20;;;18.40;56.30;;;;;;5007302;28;114981;-82
2023/09/28 03:17:45;;;;;;;11.05;8.25;;;18.40;57.80;;;;;;5006451;28;115179;-82
2023/09/28 03:20:14;;;;;;;8.95;8.02;;;18.40;57.90;;;;;;4991730;28;114170;-82
2023/09/28 03:22:46;;;;;;;9.90;8.30;;;18.60;58.00;;;;;;5009023;28;114298;-81
2023/09/28 03:25:20;;;;;;;11.32;8.18;;;18.70;56.80;;;;;;5008240;28;115155;-81
2023/09/28 03:27:54;;;;;;;9.65;8.00;;;18.60;57.60;;;;;;5007151;28;114706;-81
2023/09/28 03:30:22;;;;;;;;;;;18.60;57.80;;;;;;5008859;28;114093;-81
2023/09/28 03:32:49;;;;;;;8.70;7.15;;;18.60;57.20;;;;;;5006910;28;114314;-81
2023/09/28 03:35:18;;;;;;;9.93;8.10;;;18.70;57.90;;;;;;5025079;28;114945;-81
2023/09/28 03:37:46;;;;;;;10.27;7.93;;;18.80;57.30;;;;;;5025128;28;114599;-81
2023/09/28 03:40:13;;;;;;;10.25;7.50;;;18.90;57.20;;;;;;5008133;28;114397;-81
2023/09/28 03:42:41;;;;;;;8.85;7.50;;;18.90;57.30;;;;;;5008402;28;114180;-82
2023/09/28 03:45:09;;;;;;;10.70;8.15;;;19.00;57.00;;;;;;5009053;28;115322;-81
2023/09/28 03:47:40;;;;;;;11.02;9.07;;;19.00;56.70;;;;;;5024739;28;114744;-80
2023/09/28 03:50:12;;;;;;;10.40;9.02;;;19.00;56.50;;;;;;5043545;28;114023;-81
2023/09/28 03:52:40;;;;;;;10.60;7.97;;;19.00;56.70;;;;;;5026828;28;114359;-82
2023/09/28 03:55:11;;;;;;;10.43;8.18;;;19.10;56.70;;;;;;5007553;28;117252;-81
2023/09/28 03:57:39;;;;;;;13.05;8.43;;;19.10;56.70;;;;;;5025038;28;115833;-82
2023/09/28 04:00:06;;;;;;;10.68;9.13;;;19.10;56.30;;;;;;5042624;27;115002;-81
2023/09/28 04:02:46;;;;;;;12.45;9.43;;;19.10;56.40;;;;;;5044356;28;114064;-82
2023/09/28 04:05:19;;;;;;;15.15;9.50;;;19.10;56.20;;;;;;5012757;28;115602;-82
2023/09/28 04:07:46;;;;;;;13.63;10.27;;;19.00;56.10;;;;;;4978084;28;115079;-82
2023/09/28 04:10:14;;;;;;;10.35;9.35;;;19.00;56.20;;;;;;5029259;28;114143;-82
2023/09/28 04:12:42;;;;;;;12.60;8.80;;;18.90;56.30;;;;;;5030054;28;114299;-82
2023/09/28 04:15:09;;;;;;;11.45;9.57;;;18.90;56.30;;;;;;4994088;28;114846;-82
2023/09/28 04:17:37;;;;;;;9.98;7.95;;;18.90;56.50;;;;;;5026778;28;114884;-82
2023/09/28 04:20:09;;;;;;;12.48;8.55;;;18.80;55.40;;;;;;4994731;28;114206;-82
2023/09/28 04:22:36;;;;;;;9.77;7.72;;;18.70;55.80;;;;;;5011737;28;114255;-82
2023/09/28 04:25:04;;;;;;;10.55;8.20;;;18.40;55.20;;;;;;4994214;28;114953;-82
2023/09/28 04:27:31;;;;;;;15.60;9.07;;;18.20;55.70;;;;;;5028071;28;117271;-82
2023/09/28 04:29:58;;;;;;;11.65;8.98;;;18.00;56.70;;;;;;5028517;28;114278;-82
2023/09/28 04:32:27;;;;;;;10.63;8.57;;;17.80;57.20;;;;;;4994181;28;114335;-81
2023/09/28 04:34:55;;;;;;;11.23;8.23;;;17.80;57.50;;;;;;5010413;28;114681;-81
2023/09/28 04:37:23;;;;;;;10.20;7.97;;;17.70;56.90;;;;;;5028604;28;114698;-82
2023/09/28 04:39:50;;;;;;;11.18;8.50;;;17.60;57.80;;;;;;5029006;28;114002;-81
2023/09/28 04:42:20;;;;;;;10.23;8.50;;;17.60;57.90;;;;;;5010746;28;114260;-81
2023/09/28 04:44:48;;;;;;;10.13;8.98;;;17.70;58.70;;;;;;5027830;28;114854;-83
2023/09/28 04:47:16;;;;;;;12.48;8.93;;;17.80;58.50;;;;;;5009442;28;117076;-81
2023/09/28 04:49:44;;;;;;;12.40;8.80;;;17.80;57.90;;;;;;5028303;28;114553;-81
2023/09/28 04:52:13;;;;;;;10.55;8.82;;;17.80;58.30;;;;;;5010309;28;114311;-82
2023/09/28 04:54:40;;;;;;;10.73;8.90;;;18.00;57.60;;;;;;5009979;28;114925;-82
2023/09/28 04:57:07;;;;;;;15.10;9.40;;;18.10;57.20;;;;;;5027665;28;114862;-80
2023/09/28 04:59:38;;;;;;;11.88;8.77;;;18.20;56.90;;;;;;5028488;28;114129;-81
2023/09/28 05:02:05;;;;;;;11.05;8.90;;;18.20;57.00;;;;;;5029179;28;114082;-82
2023/09/28 05:04:33;;;;;;;12.57;8.10;;;18.20;57.00;;;;;;5027804;28;114856;-82
2023/09/28 05:07:00;;;;;;;10.65;8.35;;;18.30;57.20;;;;;;5027440;28;114561;-83
2023/09/28 05:09:27;;;;;;;10.00;7.72;;;18.40;56.30;;;;;;5027834;28;114513;-82
2023/09/28 05:11:59;;;;;;;11.80;8.40;;;18.50;56.10;;;;;;5010291;28;114507;-81
2023/09/28 05:14:27;;;;;;;10.32;7.97;;;18.50;56.40;;;;;;4993758;28;115003;-81
2023/09/28 05:16:54;;;;;;;11.93;8.07;;;18.40;56.00;;;;;;5026774;28;115273;-82
2023/09/28 05:19:22;;;;;;;12.15;8.10;;;18.40;56.30;;;;;;5010551;28;114315;-82
2023/09/28 05:21:49;;;;;;;12.25;8.30;;;18.40;56.80;;;;;;5010185;28;114491;-82
2023/09/28 05:24:17;;;;;;;11.15;8.40;;;18.50;56.00;;;;;;5026939;28;114857;-82
2023/09/28 05:26:44;;;;;;;9.98;7.80;;;18.70;56.20;;;;;;5009170;28;114731;-82
2023/09/28 05:29:11;;;;;;;9.77;7.88;;;18.80;55.10;;;;;;5009654;28;114307;-81
2023/09/28 05:31:38;;;;;;;10.77;7.40;;;18.90;54.90;;;;;;5027965;28;113971;-82
2023/09/28 05:34:06;;;;;;;11.50;8.80;;;19.10;54.10;;;;;;4992183;28;115727;-82
2023/09/28 05:36:33;;;;;;;12.30;7.70;;;19.10;54.30;;;;;;5026910;28;115132;-81
2023/09/28 05:39:02;;;;;;;10.45;7.35;;;19.20;54.20;;;;;;5027260;28;114129;-83
2023/09/28 05:41:30;;;;;;;12.80;7.88;;;19.30;53.20;;;;;;5009558;28;114387;-81
2023/09/28 05:43:59;;;;;;;12.05;7.63;;;19.30;53.10;;;;;;5026603;28;114934;-81
2023/09/28 05:46:27;;;;;;;12.18;7.25;;;19.30;53.20;;;;;;4992084;28;114750;-81
2023/09/28 05:48:54;;;;;;;8.40;6.90;;;19.40;52.40;;;;;;5027542;28;114262;-82
2023/09/28 05:51:21;;;;;;;9.45;6.72;;;19.30;52.60;;;;;;5027938;28;114185;-83
2023/09/28 05:53:51;;;;;;;10.65;7.53;;;19.30;52.20;;;;;;5008438;28;114838;-81
2023/09/28 05:56:18;;;;;;;9.13;7.35;;;19.20;53.10;;;;;;5026565;28;115061;-81
2023/09/28 05:58:46;;;;;;;11.25;7.22;;;19.30;53.30;;;;;;5026764;28;114283;-81
2023/09/28 06:01:16;;;;;;;8.85;6.78;;;19.30;52.80;;;;;;5009870;28;114517;-82
2023/09/28 06:03:43;;;;;;;8.70;6.40;;;19.40;51.60;;;;;;5026441;28;114961;-82
2023/09/28 06:06:13;;;;;;;10.13;6.70;;;19.40;51.40;;;;;;5026301;28;115118;-81
2023/09/28 06:08:40;;;;;;;10.05;6.78;;;19.30;51.50;;;;;;4992864;28;114243;-82
2023/09/28 06:11:11;;;;;;;9.60;6.90;;;19.30;52.10;;;;;;5027494;28;114319;-82
2023/09/28 06:13:40;;;;;;;11.23;6.78;;;19.40;51.60;;;;;;5008412;28;114966;-83
2023/09/28 06:16:28;;;;;;;10.10;6.85;;;19.50;51.80;;;;;;5026602;28;115245;-83
2023/09/28 06:18:56;;;;;;;10.43;6.00;;;19.50;51.50;;;;;;4975698;28;114604;-83
2023/09/28 06:21:24;;;;;;;7.88;6.50;;;19.80;50.80;;;;;;5009196;28;114283;-82
2023/09/28 06:23:51;;;;;;;13.05;7.60;;;19.90;50.60;;;;;;5007536;28;115524;-82
2023/09/28 06:26:19;;;;;;;11.50;7.28;;;20.00;50.20;;;;;;5008760;28;114859;-82
2023/09/28 06:29:05;;;;;;;8.32;6.05;;;20.10;50.70;;;;;;5035682;28;114081;-82
2023/09/28 06:31:33;;;;;;;8.98;6.20;;;20.10;50.10;;;;;;5030049;28;114220;-82
2023/09/28 06:34:00;;;;;;;10.10;6.25;;;20.20;49.40;;;;;;4993172;28;114092;-82
2023/09/28 06:36:29;;;;;;;8.57;6.47;;;20.30;49.10;;;;;;5025209;28;114587;-82
2023/09/28 06:38:59;;;;;;;8.32;6.32;;;20.50;49.30;;;;;;5009575;28;114373;-81
2023/09/28 06:41:26;;;;;;;9.13;6.43;;;20.70;48.50;;;;;;5033976;28;114217;-80
2023/09/28 06:43:54;;;;;;;11.05;6.53;;;20.80;48.40;;;;;;5028859;28;114867;-81
2023/09/28 06:46:21;;;;;;;9.43;6.20;;;20.80;47.80;;;;;;5026355;28;114755;-82
2023/09/28 06:48:50;;;;;;;8.90;6.50;;;20.90;47.80;;;;;;5026292;28;114323;-82
2023/09/28 06:51:19;;;;;;;9.98;6.82;;;20.90;48.10;;;;;;5026494;28;114211;-82
2023/09/28 06:53:46;;;;;;;10.82;6.63;;;21.10;47.80;;;;;;4975685;28;115044;-82
2023/09/28 06:56:14;;;;;;;8.95;6.30;;;21.30;48.30;;;;;;5007946;28;114715;-83
2023/09/28 06:58:41;;;;;;;7.60;6.10;;;21.40;47.90;;;;;;5008677;28;115053;-82
2023/09/28 07:01:09;;;;;;;10.88;6.85;;;21.60;47.40;;;;;;5026984;28;114080;-81
2023/09/28 07:03:36;;;;;;;10.30;6.28;;;21.70;47.00;;;;;;5026052;28;114862;-82
2023/09/28 07:06:05;;;;;;;9.88;7.47;;;21.80;46.10;;;;;;5026299;28;114657;-82
2023/09/28 07:08:32;;;;;;;9.55;5.95;;;21.90;47.50;;;;;;5026589;28;114097;-82
2023/09/28 07:10:59;;;;;;;9.57;5.97;;;21.90;45.50;;;;;;5008811;28;114218;-81
2023/09/28 07:13:27;;;;;;;13.95;7.22;;;22.00;45.50;;;;;;5024926;28;115371;-82
2023/09/28 07:15:56;;;;;;;9.13;6.88;;;22.10;46.00;;;;;;4991139;28;114917;-82
2023/09/28 07:18:25;;;;;;;8.13;6.15;;;22.20;46.00;;;;;;5026010;28;114466;-82
2023/09/28 07:20:53;;;;;;;11.60;6.95;;;22.20;45.20;;;;;;5026625;28;114212;-82
2023/09/28 07:23:20;;;;;;;11.30;6.47;;;22.30;45.70;;;;;;5025390;28;116132;-83
2023/09/28 07:25:50;;;;;;;10.85;6.22;;;22.40;44.90;;;;;;5025319;28;114565;-81
2023/09/28 07:28:18;;;;;;;10.30;6.57;;;22.60;45.20;;;;;;5026123;28;114193;-82
2023/09/28 07:30:45;;;;;;;12.55;6.53;;;22.70;44.80;;;;;;5026582;28;114035;-82
2023/09/28 07:33:15;;;;;;;10.65;5.75;;;22.80;44.20;;;;;;5025304;28;115013;-81
2023/09/28 07:35:43;;;;;;;10.82;6.45;;;22.90;43.60;;;;;;5027692;27;114552;-83
2023/09/28 07:38:11;;;;;;;11.13;5.53;;;23.00;43.50;;;;;;5011216;28;114216;-82
2023/09/28 07:40:41;;;;;;;9.45;5.85;;;23.10;42.70;;;;;;5012297;28;114301;-82
2023/09/28 07:43:14;;;;;;;10.50;6.45;;;23.10;42.60;;;;;;4995718;28;115281;-82
2023/09/28 07:45:42;;;;;;;12.45;6.07;;;23.10;42.50;;;;;;5028439;28;114951;-81
2023/09/28 07:48:11;;;;;;;11.10;5.70;;;23.20;41.90;;;;;;5029300;28;114335;-81
2023/09/28 07:50:38;;;;;;;8.10;5.25;;;23.20;41.70;;;;;;5029228;28;114366;-81
2023/09/28 07:53:05;;;;;;;9.43;5.82;;;23.20;41.30;;;;;;5010644;28;114875;-81
2023/09/28 07:55:33;;;;;;;10.43;5.88;;;23.30;41.30;;;;;;5009516;28;118407;-82
2023/09/28 07:58:00;;;;;;;9.18;5.13;;;23.30;40.90;;;;;;4994811;28;114338;-82
2023/09/28 08:00:47;;;;;;;7.15;5.10;;;23.20;40.60;;;;;;5010301;28;114596;-81
2023/09/28 08:03:15;;;;;;;10.10;5.07;;;23.20;40.80;;;;;;4993767;28;115067;-80
2023/09/28 08:05:44;;;;;;;9.60;5.50;;;23.20;40.40;;;;;;5028209;28;114937;-82
2023/09/28 08:08:13;;;;;;;8.52;5.53;;;23.10;40.80;;;;;;5029185;28;114521;-82
2023/09/28 08:10:44;;;;;;;8.60;5.35;;;23.10;40.70;;;;;;5011539;28;114176;-82
2023/09/28 08:13:11;;;;;;;9.30;5.93;;;23.20;41.10;;;;;;5027581;28;115881;-82
2023/09/28 08:15:41;;;;;;;8.65;5.30;;;23.20;40.00;;;;;;5010849;28;114637;-81
2023/09/28 08:18:09;;;;;;;9.88;5.75;;;23.10;40.70;;;;;;5011338;28;114421;-81
2023/09/28 08:20:37;;;;;;;8.18;5.68;;;23.20;40.80;;;;;;5029118;28;114260;-81
2023/09/28 08:23:06;;;;;;;10.00;5.97;;;23.30;41.10;;;;;;5027985;28;114867;-83
2023/09/28 08:25:34;;;;;;;11.07;6.20;;;23.30;40.60;;;;;;5009683;28;115219;-82
2023/09/28 08:28:01;;;;;;;10.32;6.18;;;23.30;40.30;;;;;;5010586;28;114477;-82
2023/09/28 08:30:28;;;;;;;8.63;6.18;;;23.30;40.00;;;;;;5010886;28;114115;-82
2023/09/28 08:32:56;;;;;;;10.93;6.20;;;23.30;40.30;;;;;;4977097;28;114090;-82
2023/09/28 08:35:23;;;;;;;11.93;6.15;;;23.30;40.20;;;;;;5027764;28;114587;-82
2023/09/28 08:37:51;;;;;;;11.52;6.07;;;23.30;40.30;;;;;;5028545;28;114536;-82
2023/09/28 08:40:18;;;;;;;10.48;5.60;;;23.40;39.90;;;;;;5028586;28;114223;-81
2023/09/28 08:42:46;;;;;;;9.13;6.10;;;23.40;39.80;;;;;;5009832;28;114985;-80
2023/09/28 08:45:15;;;;;;;11.98;6.05;;;23.40;40.40;;;;;;4993781;27;114697;-81
2023/09/28 08:47:48;;;;;;;9.98;5.75;;;23.70;40.20;;;;;;4994842;28;114251;-81
2023/09/28 08:50:20;;;;;;;9.80;6.00;;;23.80;40.50;;;;;;5028312;28;114416;-82
2023/09/28 08:52:47;;;;;;;9.15;5.80;;;23.90;39.30;;;;;;5009442;28;114853;-81
2023/09/28 08:55:15;;;;;;;10.25;6.25;;;24.00;38.60;;;;;;5009689;28;114612;-81
2023/09/28 08:57:42;;;;;;;11.90;6.28;;;24.10;39.60;;;;;;5010581;28;114242;-81
2023/09/28 09:00:13;;;;;;;13.38;5.78;;;24.10;37.90;;;;;;4994128;28;114446;-82
2023/09/28 09:02:42;;;;;;;14.18;6.25;;;24.10;37.90;;;;;;4993975;28;115190;-81
2023/09/28 09:05:13;;;;;;;9.60;5.53;;;24.20;37.70;;;;;;4976557;28;114675;-82
2023/09/28 09:07:42;;;;;;;11.02;5.93;;;24.30;36.90;;;;;;5028197;28;114313;-82
2023/09/28 09:10:16;;;;;;;10.50;5.80;;;24.30;36.90;;;;;;4994041;28;114486;-82
2023/09/28 09:12:43;;;;;;;11.07;5.60;;;24.40;36.80;;;;;;5027045;28;115577;-82
2023/09/28 09:15:11;;;;;;;11.00;6.15;;;24.40;37.20;;;;;;5027155;28;114649;-82
2023/09/28 09:17:38;;;;;;;8.85;5.63;;;24.50;37.20;;;;;;5027075;28;114335;-82
2023/09/28 09:20:08;;;;;;;9.88;5.32;;;24.70;36.60;;;;;;5029481;28;113982;-82
2023/09/28 09:22:36;;;;;;;8.70;5.18;;;24.70;36.70;;;;;;5016632;28;114155;-82
2023/09/28 09:25:23;;;;;;;11.38;5.60;;;24.80;36.00;;;;;;5027336;28;114830;-82
2023/09/28 09:27:52;;;;;;;9.38;5.32;;;24.80;36.00;;;;;;4993574;28;114375;-82
2023/09/28 09:30:20;;;;;;;12.68;5.47;;;24.70;36.20;;;;;;5034071;28;114319;-81
2023/09/28 09:32:48;;;;;;;10.75;5.32;;;24.70;35.90;;;;;;5019955;28;114956;-81
2023/09/28 09:35:16;;;;;;;10.23;5.70;;;24.60;36.20;;;;;;5030921;28;114699;-82
2023/09/28 09:37:50;;;;;;;7.85;5.90;;;24.60;36.60;;;;;;5010993;28;114371;-82
2023/09/28 09:40:18;;;;;;;12.77;6.20;;;24.80;36.50;;;;;;4994115;28;114225;-82
2023/09/28 09:42:45;;;;;;;9.48;5.80;;;24.70;35.50;;;;;;5026864;28;114912;-81
2023/09/28 09:45:12;;;;;;;10.10;6.28;;;24.70;36.40;;;;;;5009437;28;114559;-82
2023/09/28 09:47:49;;;;;;;11.48;6.55;;;24.60;36.40;;;;;;5028542;28;113970;-82
2023/09/28 09:50:17;;;;;;;9.88;5.90;;;24.60;35.80;;;;;;4976629;28;114312;-82
2023/09/28 09:52:44;;;;;;;10.40;5.15;;;24.40;36.20;;;;;;5009322;28;118295;-82
2023/09/28 09:55:12;;;;;;;7.65;5.22;;;24.30;36.20;;;;;;5027011;28;114804;-81
2023/09/28 09:57:42;;;;;;;8.40;4.78;;;24.40;36.60;;;;;;5026409;27;114441;-82
2023/09/28 10:00:15;;;;;;;11.88;5.10;;;24.50;36.00;;;;;;4994069;28;114233;-81
2023/09/28 10:02:43;;;;;;;;;;;24.40;35.90;;;;;;5009629;28;116288;-81
2023/09/28 10:05:13;;;;;;;9.88;5.47;;;24.30;36.80;;;;;;5009029;28;115044;-81
2023/09/28 10:07:41;;;;;;;12.60;5.68;;;24.20;37.10;;;;;;5009429;28;114506;-82
2023/09/28 10:10:14;;;;;;;8.27;5.27;;;24.30;37.30;;;;;;5010669;28;114218;-82
2023/09/28 10:12:41;;;;;;;8.60;4.97;;;24.40;36.40;;;;;;5026597;28;114887;-82
2023/09/28 10:15:08;;;;;;;6.82;4.72;;;24.40;36.10;;;;;;5026213;28;114673;-82
2023/09/28 10:17:35;;;;;;;7.95;5.18;;;24.50;36.50;;;;;;4992222;28;114183;-81
2023/09/28 10:20:04;;;;;;;8.98;5.22;;;24.50;36.20;;;;;;5009059;28;114300;-81
2023/09/28 10:22:31;;;;;;;10.80;4.80;;;24.40;36.70;;;;;;5008605;28;114907;-81
2023/09/28 10:24:58;;;;;;;8.50;4.93;;;24.50;36.80;;;;;;5026679;28;114618;-82
2023/09/28 10:27:27;;;;;;;8.25;5.35;;;24.60;36.80;;;;;;5009328;28;114294;-83
2023/09/28 10:30:22;;;;;;;8.38;5.43;;;24.70;37.00;;;;;;5027548;28;114213;-81
2023/09/28 10:32:57;;;;;;;8.23;4.78;;;24.80;36.40;;;;;;5007283;28;119261;-82
2023/09/28 10:35:29;;;;;;;8.23;4.88;;;24.80;35.90;;;;;;4959329;28;114773;-82
2023/09/28 10:38:22;;;;;;;7.82;5.05;;;24.80;36.10;;;;;;5027279;28;114325;-82
2023/09/28 10:41:00;;;;;;;10.35;4.80;;;24.90;36.60;;;;;;4993195;28;114316;-82
2023/09/28 10:43:31;;;;;;;8.15;4.78;;;25.00;36.30;;;;;;5026157;28;114869;-82
2023/09/28 10:46:03;;;;;;;9.18;4.43;;;25.00;35.50;;;;;;5008729;28;114591;-82
2023/09/28 10:48:45;;;;;;;8.43;4.53;;;25.10;35.20;;;;;;4992600;28;114270;-82
2023/09/28 10:51:16;;;;;;;8.82;4.45;;;25.30;35.60;;;;;;5009035;28;114238;-82
2023/09/28 10:53:44;;;;;;;8.85;4.72;;;25.30;34.20;;;;;;4990508;28;115615;-82
2023/09/28 10:56:11;;;;;;;8.15;5.10;;;25.40;34.50;;;;;;4991503;28;114668;-82
2023/09/28 10:58:42;;;;;;;8.77;5.18;;;25.50;34.40;;;;;;5008411;28;114531;-81
2023/09/28 11:01:10;;;;;;;9.98;4.20;;;25.60;33.70;;;;;;5008425;28;114340;-81
2023/09/28 11:03:38;;;;;;;8.02;4.53;;;25.60;33.60;;;;;;5025353;28;114921;-82
2023/09/28 11:06:07;;;;;;;7.22;4.50;;;25.70;33.40;;;;;;5007627;28;114925;-82
2023/09/28 11:08:39;;;;;;;9.50;4.60;;;25.80;33.90;;;;;;5008673;28;114304;-83
2023/09/28 11:11:06;;;;;;;9.77;4.65;;;25.80;33.10;;;;;;5008874;28;114242;-82
2023/09/28 11:13:34;;;;;;;9.45;4.18;;;25.80;32.90;;;;;;5025828;28;115267;-81
2023/09/28 11:16:01;;;;;;;10.13;4.30;;;25.80;32.30;;;;;;5025729;28;114648;-82
2023/09/28 11:18:28;;;;;;;8.95;4.05;;;25.80;32.20;;;;;;5007215;28;114415;-81
2023/09/28 11:20:56;;;;;;;8.57;4.10;;;25.80;32.40;;;;;;4992330;28;114331;-83
2023/09/28 11:23:24;;;;;;;7.28;4.38;;;25.80;32.40;;;;;;4990374;28;117873;-81
2023/09/28 11:25:52;;;;;;;5.78;3.92;;;25.80;32.50;;;;;;5025601;28;114678;-81
2023/09/28 11:28:19;;;;;;;8.23;4.20;;;25.80;32.30;;;;;;5010122;28;115351;-82
2023/09/28 11:31:01;;;;;;;9.88;4.40;;;25.80;31.80;;;;;;5008474;28;114144;-83
2023/09/28 11:33:28;;;;;;;7.35;4.30;;;25.80;32.10;;;;;;4993070;28;114971;-82
2023/09/28 11:35:55;;;;;;;5.97;4.18;;;25.80;31.90;;;;;;5025200;28;114607;-82
2023/09/28 11:38:22;;;;;;;7.70;4.20;;;25.90;32.00;;;;;;4991869;28;114119;-81
2023/09/28 11:40:52;;;;;;;7.50;4.15;;;26.00;32.30;;;;;;5008595;28;114642;-83
2023/09/28 11:43:20;;;;;;;7.28;4.70;;;26.00;31.60;;;;;;5007587;28;115135;-82
2023/09/28 11:45:48;;;;;;;8.57;4.35;;;25.90;31.60;;;;;;5007176;28;114552;-83
2023/09/28 11:48:20;;;;;;;8.60;4.32;;;25.90;31.50;;;;;;5007745;28;114161;-81
2023/09/28 11:50:47;;;;;;;8.52;4.38;;;25.90;31.70;;;;;;5025892;28;114308;-82
2023/09/28 11:53:15;;;;;;;8.93;4.53;;;25.80;31.70;;;;;;5025609;28;115060;-82
2023/09/28 11:55:45;;;;;;;8.27;4.25;;;25.90;32.10;;;;;;4991032;28;114702;-83
2023/09/28 11:58:17;;;;;;;8.70;4.70;;;25.90;31.60;;;;;;5007638;28;114310;-82
2023/09/28 12:00:47;;;;;;;8.68;4.60;;;25.90;31.70;;;;;;4975561;28;114253;-83
2023/09/28 12:03:14;;;;;;;8.55;4.57;;;26.00;31.80;;;;;;5024829;28;114647;-84
2023/09/28 12:05:41;;;;;;;12.05;4.30;;;25.90;31.90;;;;;;4975184;28;114558;-81
2023/09/28 12:08:10;;;;;;;7.85;4.20;;;26.00;31.50;;;;;;5008437;28;114145;-83
2023/09/28 12:10:37;;;;;;;8.23;4.05;;;26.00;31.90;;;;;;5033095;28;114136;-81
2023/09/28 12:13:05;;;;;;;7.53;4.18;;;26.00;31.40;;;;;;5023185;28;115070;-84
2023/09/28 12:15:32;;;;;;;6.97;3.95;;;26.00;31.30;;;;;;5038782;28;114797;-82
2023/09/28 12:17:59;;;;;;;5.07;3.88;;;25.90;31.40;;;;;;5007694;28;114750;-82
2023/09/28 12:20:27;;;;;;;12.30;4.35;;;25.90;31.30;;;;;;5025468;27;114345;-82
2023/09/28 12:22:54;;;;;;;8.02;4.15;;;25.90;31.60;;;;;;5010644;28;115015;-82
2023/09/28 12:25:23;;;;;;;9.52;4.30;;;25.90;32.00;;;;;;5018767;28;117490;-82
2023/09/28 12:27:50;;;;;;;7.22;3.97;;;25.90;31.70;;;;;;5010058;28;114107;-83
2023/09/28 12:30:22;;;;;;;9.02;4.40;;;25.90;31.60;;;;;;5013887;28;114209;-82
2023/09/28 12:32:54;;;;;;;11.20;5.45;;;25.90;32.00;;;;;;5011223;28;115283;-82
2023/09/28 12:35:21;;;;;;;6.88;4.20;;;25.90;32.00;;;;;;5028404;28;114582;-82
2023/09/28 12:37:49;;;;;;;6.13;4.20;;;25.90;31.70;;;;;;5010595;28;114266;-82
2023/09/28 12:40:17;;;;;;;7.85;4.30;;;25.80;31.50;;;;;;5028733;28;114120;-83
2023/09/28 12:42:45;;;;;;;6.60;4.53;;;25.80;31.60;;;;;;4992245;28;117805;-82
2023/09/28 12:45:12;;;;;;;7.80;4.45;;;25.80;31.70;;;;;;5009892;28;115597;-82